createdAt,value
2019-01-27T00:02:08.853Z,28.90
2019-01-27T00:04:41.871Z,28.80
2019-01-27T00:07:15.058Z,28.80
2019-01-27T00:09:47.825Z,28.90
2019-01-27T00:12:20.794Z,29.00
2019-01-27T00:14:53.782Z,29.50
2019-01-27T00:17:26.778Z,30.00
2019-01-27T00:19:59.761Z,30.40
2019-01-27T00:22:33.491Z,30.80
2019-01-27T00:25:06.958Z,31.00
2019-01-27T00:27:40.106Z,31.30
2019-01-27T00:30:23.701Z,31.60
2019-01-27T00:32:57.049Z,31.80
2019-01-27T00:35:29.970Z,31.90
2019-01-27T00:38:03.078Z,32.10
2019-01-27T00:40:35.953Z,32.20
2019-01-27T00:43:08.921Z,32.40
2019-01-27T00:45:41.718Z,32.50
2019-01-27T00:48:14.702Z,32.50
2019-01-27T00:50:47.485Z,32.50
2019-01-27T00:53:20.398Z,32.40
2019-01-27T00:55:53.461Z,32.50
2019-01-27T00:58:26.454Z,32.50
2019-01-27T01:00:59.526Z,32.50
2019-01-27T01:03:32.414Z,32.60
2019-01-27T01:06:06.223Z,32.50
2019-01-27T01:08:38.990Z,32.20
2019-01-27T01:11:12.027Z,32.00
2019-01-27T01:13:45.886Z,31.50
2019-01-27T01:16:18.903Z,31.00
2019-01-27T01:18:52.063Z,30.60
2019-01-27T01:21:25.170Z,30.20
2019-01-27T01:23:58.129Z,29.80
2019-01-27T01:26:30.945Z,29.40
2019-01-27T01:29:04.169Z,29.10
2019-01-27T01:31:37.099Z,28.80
2019-01-27T01:34:10.028Z,28.60
2019-01-27T01:36:43.006Z,28.40
2019-01-27T01:39:15.864Z,28.30
2019-01-27T01:41:49.463Z,28.20
2019-01-27T01:44:22.800Z,28.40
2019-01-27T01:46:55.815Z,28.70
2019-01-27T01:49:29.068Z,28.80
2019-01-27T01:52:02.721Z,29.20
2019-01-27T01:54:35.510Z,29.60
2019-01-27T01:57:08.509Z,29.50
2019-01-27T01:59:42.319Z,29.30
2019-01-27T02:02:15.194Z,29.00
2019-01-27T02:04:48.120Z,28.90
2019-01-27T02:07:21.175Z,28.70
2019-01-27T02:09:53.956Z,28.70
2019-01-27T02:12:26.618Z,28.90
2019-01-27T02:14:59.663Z,28.80
2019-01-27T02:17:32.714Z,28.70
2019-01-27T02:20:05.798Z,28.60
2019-01-27T02:22:39.716Z,28.60
2019-01-27T02:25:12.706Z,28.60
2019-01-27T02:27:45.775Z,28.60
2019-01-27T02:30:19.717Z,28.60
2019-01-27T02:32:53.095Z,28.40
2019-01-27T02:35:25.756Z,28.20
2019-01-27T02:37:58.856Z,28.10
2019-01-27T02:40:31.657Z,28.00
2019-01-27T02:43:04.704Z,28.00
2019-01-27T02:45:37.612Z,27.90
2019-01-27T02:48:10.584Z,27.90
2019-01-27T02:50:43.387Z,27.80
2019-01-27T02:53:16.369Z,27.70
2019-01-27T02:55:49.639Z,27.60
2019-01-27T02:58:22.721Z,27.50
2019-01-27T03:00:55.544Z,27.50
2019-01-27T03:03:28.617Z,27.40
2019-01-27T03:06:08.335Z,27.40
2019-01-27T03:08:41.846Z,27.30
2019-01-27T03:11:14.649Z,27.30
2019-01-27T03:13:47.843Z,27.30
2019-01-27T03:16:20.615Z,27.20
2019-01-27T03:18:53.711Z,27.10
2019-01-27T03:21:26.695Z,27.00
2019-01-27T03:23:59.775Z,26.90
2019-01-27T03:26:32.558Z,26.90
2019-01-27T03:29:05.535Z,26.80
2019-01-27T03:31:38.468Z,26.90
2019-01-27T03:34:11.462Z,26.80
2019-01-27T03:36:44.188Z,26.70
2019-01-27T03:39:17.296Z,26.80
2019-01-27T03:41:49.963Z,26.90
2019-01-27T03:44:23.065Z,26.90
2019-01-27T03:46:55.943Z,26.90
2019-01-27T03:49:29.063Z,27.00
2019-01-27T03:52:01.820Z,27.00
2019-01-27T03:54:34.761Z,27.00
2019-01-27T03:57:08.606Z,27.00
2019-01-27T03:59:41.591Z,26.90
2019-01-27T04:02:14.380Z,26.80
2019-01-27T04:04:47.047Z,26.80
2019-01-27T04:07:20.120Z,26.70
2019-01-27T04:09:52.836Z,26.70
2019-01-27T04:12:26.537Z,26.60
2019-01-27T04:14:59.191Z,26.60
2019-01-27T04:17:32.096Z,26.50
2019-01-27T04:20:05.008Z,26.50
2019-01-27T04:22:37.859Z,26.30
2019-01-27T04:25:10.721Z,26.30
2019-01-27T04:27:43.634Z,26.20
2019-01-27T04:30:33.101Z,26.10
2019-01-27T04:33:05.990Z,26.10
2019-01-27T04:35:38.960Z,26.10
2019-01-27T04:38:11.771Z,26.10
2019-01-27T04:40:45.039Z,26.10
2019-01-27T04:43:18.137Z,26.10
2019-01-27T04:45:51.108Z,26.10
2019-01-27T04:48:24.628Z,26.10
2019-01-27T04:50:57.676Z,26.10
2019-01-27T04:53:30.823Z,26.10
2019-01-27T04:56:03.900Z,26.10
2019-01-27T04:58:36.683Z,26.10
2019-01-27T05:01:10.576Z,26.10
2019-01-27T05:03:47.304Z,26.10
2019-01-27T05:06:21.283Z,26.10
2019-01-27T05:08:54.036Z,26.10
2019-01-27T05:11:27.147Z,26.10
2019-01-27T05:14:01.031Z,26.10
2019-01-27T05:16:34.223Z,26.10
2019-01-27T05:19:07.112Z,26.10
2019-01-27T05:21:40.095Z,26.00
2019-01-27T05:24:12.887Z,26.00
2019-01-27T05:26:45.884Z,26.00
2019-01-27T05:29:18.684Z,25.90
2019-01-27T05:31:51.757Z,25.90
2019-01-27T05:34:24.541Z,25.80
2019-01-27T05:36:57.617Z,25.70
2019-01-27T05:39:30.285Z,25.60
2019-01-27T05:42:03.786Z,25.50
2019-01-27T05:44:36.595Z,25.50
2019-01-27T05:47:09.368Z,25.50
2019-01-27T05:49:42.959Z,25.40
2019-01-27T05:52:15.740Z,25.30
2019-01-27T05:54:48.798Z,25.30
2019-01-27T05:57:21.723Z,25.20
2019-01-27T05:59:54.683Z,25.20
2019-01-27T06:02:27.487Z,25.20
2019-01-27T06:05:00.382Z,25.10
2019-01-27T06:07:33.455Z,25.10
2019-01-27T06:10:06.362Z,25.00
2019-01-27T06:12:40.663Z,25.00
2019-01-27T06:15:18.266Z,24.90
2019-01-27T06:17:51.325Z,24.90
2019-01-27T06:20:24.129Z,24.80
2019-01-27T06:22:57.113Z,24.70
2019-01-27T06:25:29.917Z,24.70
2019-01-27T06:28:03.641Z,24.60
2019-01-27T06:30:36.491Z,24.60
2019-01-27T06:33:11.143Z,24.50
2019-01-27T06:35:44.706Z,24.40
2019-01-27T06:38:18.352Z,24.30
2019-01-27T06:40:51.087Z,24.20
2019-01-27T06:43:25.303Z,24.20
2019-01-27T06:45:59.427Z,24.20
2019-01-27T06:48:32.313Z,24.20
2019-01-27T06:51:05.672Z,24.10
2019-01-27T06:53:38.480Z,24.10
2019-01-27T06:56:12.611Z,24.00
2019-01-27T06:59:02.837Z,24.00
2019-01-27T07:01:41.312Z,23.90
2019-01-27T07:04:15.243Z,23.80
2019-01-27T07:07:07.593Z,23.70
2019-01-27T07:09:41.627Z,23.60
2019-01-27T07:12:15.849Z,23.50
2019-01-27T07:14:55.867Z,23.50
2019-01-27T07:17:45.265Z,23.50
2019-01-27T07:20:31.546Z,23.50
2019-01-27T07:23:21.162Z,23.40
2019-01-27T07:26:01.182Z,23.40
2019-01-27T07:28:44.612Z,23.40
2019-01-27T07:31:24.663Z,23.40
2019-01-27T07:34:08.315Z,23.40
2019-01-27T07:36:42.432Z,23.40
2019-01-27T07:39:16.834Z,23.40
2019-01-27T07:41:53.502Z,23.40
2019-01-27T07:44:34.290Z,23.40
2019-01-27T07:47:24.462Z,23.40
2019-01-27T07:50:01.762Z,23.30
2019-01-27T07:52:50.794Z,23.30
2019-01-27T07:55:28.080Z,23.20
2019-01-27T07:58:04.976Z,23.20
2019-01-27T08:00:39.291Z,23.20
2019-01-27T08:03:16.077Z,23.20
2019-01-27T08:05:50.284Z,23.20
2019-01-27T08:08:27.267Z,23.20
2019-01-27T08:11:17.955Z,23.20
2019-01-27T08:13:54.858Z,23.20
2019-01-27T08:16:35.196Z,23.20
2019-01-27T08:19:21.707Z,23.20
2019-01-27T08:22:14.271Z,23.20
2019-01-27T08:24:49.275Z,23.20
2019-01-27T08:27:23.520Z,23.20
2019-01-27T08:30:07.133Z,23.20
2019-01-27T08:32:41.475Z,23.20
2019-01-27T08:35:15.860Z,23.20
2019-01-27T08:37:53.142Z,23.20
2019-01-27T08:40:27.054Z,23.20
2019-01-27T08:43:07.254Z,23.20
2019-01-27T08:45:41.454Z,23.20
2019-01-27T08:48:14.279Z,23.20
2019-01-27T08:50:47.354Z,23.10
2019-01-27T08:53:20.257Z,23.20
2019-01-27T08:55:53.224Z,23.20
2019-01-27T08:58:26.024Z,23.20
2019-01-27T09:00:59.988Z,23.20
2019-01-27T09:03:34.277Z,23.10
2019-01-27T09:06:21.523Z,23.10
2019-01-27T09:08:55.604Z,23.10
2019-01-27T09:11:35.376Z,23.10
2019-01-27T09:14:21.960Z,23.10
2019-01-27T09:17:02.314Z,23.10
2019-01-27T09:19:45.173Z,23.10
2019-01-27T09:22:19.169Z,23.10
2019-01-27T09:24:53.265Z,23.10
2019-01-27T09:27:29.959Z,23.10
2019-01-27T09:30:04.149Z,23.10
2019-01-27T09:32:54.551Z,23.00
2019-01-27T09:35:29.006Z,23.00
2019-01-27T09:38:19.768Z,23.00
2019-01-27T09:40:56.854Z,23.00
2019-01-27T09:43:39.877Z,22.90
2019-01-27T09:46:14.318Z,22.90
2019-01-27T09:48:51.205Z,22.90
2019-01-27T09:51:28.875Z,22.90
2019-01-27T09:54:02.692Z,22.90
2019-01-27T09:56:36.789Z,22.90
2019-01-27T09:59:14.301Z,22.90
2019-01-27T10:01:48.199Z,22.90
2019-01-27T10:04:25.305Z,22.80
2019-01-27T10:07:08.705Z,22.80
2019-01-27T10:09:48.391Z,22.80
2019-01-27T10:12:38.161Z,22.70
2019-01-27T10:15:32.777Z,22.70
2019-01-27T10:18:12.474Z,22.70
2019-01-27T10:21:03.273Z,22.70
2019-01-27T10:23:37.201Z,22.70
2019-01-27T10:26:11.280Z,22.70
2019-01-27T10:28:51.704Z,22.60
2019-01-27T10:31:42.452Z,22.60
2019-01-27T10:34:19.341Z,22.60
2019-01-27T10:36:56.410Z,22.70
2019-01-27T10:39:33.719Z,22.70
2019-01-27T10:42:26.142Z,22.70
2019-01-27T10:45:00.138Z,22.70
2019-01-27T10:47:40.737Z,22.70
2019-01-27T10:50:21.693Z,22.70
2019-01-27T10:53:08.423Z,22.70
2019-01-27T10:55:42.206Z,22.70
2019-01-27T10:58:34.472Z,22.70
2019-01-27T11:01:11.936Z,22.70
2019-01-27T11:03:54.986Z,22.60
2019-01-27T11:06:32.076Z,22.60
2019-01-27T11:09:22.966Z,22.60
2019-01-27T11:12:12.423Z,22.60
2019-01-27T11:15:01.930Z,22.50
2019-01-27T11:17:41.769Z,22.50
2019-01-27T11:20:18.134Z,22.40
2019-01-27T11:23:01.436Z,22.30
2019-01-27T11:25:35.653Z,22.30
2019-01-27T11:28:18.894Z,22.20
2019-01-27T11:30:58.367Z,22.20
2019-01-27T11:33:47.384Z,22.30
2019-01-27T11:36:21.425Z,22.30
2019-01-27T11:39:12.110Z,22.20
2019-01-27T11:41:46.206Z,22.30
2019-01-27T11:44:20.275Z,22.30
2019-01-27T11:47:06.322Z,22.30
2019-01-27T11:49:46.467Z,22.30
2019-01-27T11:52:19.215Z,22.20
2019-01-27T11:54:52.204Z,22.20
2019-01-27T11:57:24.980Z,22.10
2019-01-27T11:59:57.947Z,22.10
2019-01-27T12:02:30.753Z,22.10
2019-01-27T12:05:03.724Z,22.00
2019-01-27T12:07:36.521Z,22.00
2019-01-27T12:10:11.472Z,22.10
2019-01-27T12:12:44.342Z,22.10
2019-01-27T12:15:19.441Z,22.10
2019-01-27T12:17:52.353Z,22.10
2019-01-27T12:20:25.321Z,22.10
2019-01-27T12:22:58.202Z,22.10
2019-01-27T12:25:31.102Z,22.10
2019-01-27T12:28:04.086Z,22.00
2019-01-27T12:30:37.095Z,22.00
2019-01-27T12:33:10.195Z,22.00
2019-01-27T12:35:43.046Z,21.90
2019-01-27T12:38:16.395Z,21.90
2019-01-27T12:40:49.531Z,21.90
2019-01-27T12:43:22.424Z,21.90
2019-01-27T12:45:55.205Z,21.90
2019-01-27T12:48:28.116Z,21.90
2019-01-27T12:51:00.986Z,22.00
2019-01-27T12:53:34.644Z,22.00
2019-01-27T12:56:07.861Z,22.00
2019-01-27T12:58:40.941Z,22.00
2019-01-27T13:01:13.744Z,22.00
2019-01-27T13:03:46.589Z,22.00
2019-01-27T13:06:19.505Z,22.00
2019-01-27T13:08:52.283Z,22.10
2019-01-27T13:11:25.207Z,22.00
2019-01-27T13:13:58.069Z,22.00
2019-01-27T13:16:30.912Z,22.10
2019-01-27T13:19:03.823Z,22.00
2019-01-27T13:21:36.616Z,22.00
2019-01-27T13:24:09.451Z,22.00
2019-01-27T13:26:42.172Z,22.00
2019-01-27T13:29:15.138Z,22.00
2019-01-27T13:31:47.816Z,22.00
2019-01-27T13:34:20.927Z,22.00
2019-01-27T13:36:53.786Z,22.00
2019-01-27T13:39:26.910Z,22.00
2019-01-27T13:41:59.801Z,21.90
2019-01-27T13:44:32.847Z,21.90
2019-01-27T13:47:05.660Z,21.80
2019-01-27T13:49:38.525Z,21.80
2019-01-27T13:52:11.425Z,21.80
2019-01-27T13:54:44.406Z,21.80
2019-01-27T13:57:17.214Z,21.90
2019-01-27T13:59:51.525Z,21.90
2019-01-27T14:02:24.402Z,21.90
2019-01-27T14:04:57.371Z,21.90
2019-01-27T14:07:30.367Z,21.90
2019-01-27T14:10:03.855Z,21.90
2019-01-27T14:12:36.759Z,21.90
2019-01-27T14:15:12.710Z,21.90
2019-01-27T14:17:45.391Z,21.90
2019-01-27T14:20:19.869Z,21.90
2019-01-27T14:22:52.788Z,21.90
2019-01-27T14:25:27.752Z,21.90
2019-01-27T14:28:01.009Z,21.90
2019-01-27T14:30:37.056Z,21.90
2019-01-27T14:33:10.885Z,21.90
2019-01-27T14:35:43.865Z,21.90
2019-01-27T14:38:16.638Z,21.90
2019-01-27T14:40:49.437Z,21.90
2019-01-27T14:43:22.622Z,21.80
2019-01-27T14:45:55.427Z,21.80
2019-01-27T14:48:29.302Z,21.80
2019-01-27T14:51:02.220Z,21.70
2019-01-27T14:53:35.055Z,21.70
2019-01-27T14:56:07.967Z,21.70
2019-01-27T14:58:40.623Z,21.70
2019-01-27T15:01:13.659Z,21.70
2019-01-27T15:03:46.528Z,21.60
2019-01-27T15:06:19.648Z,21.60
2019-01-27T15:08:52.487Z,21.60
2019-01-27T15:11:25.472Z,21.60
2019-01-27T15:13:58.144Z,21.60
2019-01-27T15:16:31.041Z,21.60
2019-01-27T15:19:04.016Z,21.60
2019-01-27T15:21:36.817Z,21.60
2019-01-27T15:24:09.787Z,21.50
2019-01-27T15:26:42.463Z,21.50
2019-01-27T15:29:15.355Z,21.40
2019-01-27T15:31:48.348Z,21.40
2019-01-27T15:34:21.530Z,21.40
2019-01-27T15:36:54.387Z,21.40
2019-01-27T15:39:27.300Z,21.40
2019-01-27T15:42:01.953Z,21.40
2019-01-27T15:44:35.327Z,21.40
2019-01-27T15:47:08.233Z,21.40
2019-01-27T15:49:41.212Z,21.40
2019-01-27T15:52:14.205Z,21.40
2019-01-27T15:54:47.269Z,21.40
2019-01-27T15:57:20.268Z,21.40
2019-01-27T15:59:53.236Z,21.50
2019-01-27T16:02:26.019Z,21.50
2019-01-27T16:04:58.990Z,21.40
2019-01-27T16:07:31.792Z,21.50
2019-01-27T16:10:04.496Z,21.40
2019-01-27T16:12:37.567Z,21.40
2019-01-27T16:15:12.391Z,21.40
2019-01-27T16:17:45.183Z,21.40
2019-01-27T16:20:19.860Z,21.40
2019-01-27T16:23:09.126Z,21.40
2019-01-27T16:25:42.131Z,21.40
2019-01-27T16:28:14.953Z,21.40
2019-01-27T16:30:49.187Z,21.40
2019-01-27T16:33:29.159Z,21.40
2019-01-27T16:36:02.096Z,21.40
2019-01-27T16:38:34.875Z,21.40
2019-01-27T16:41:07.783Z,21.40
2019-01-27T16:43:41.973Z,21.40
2019-01-27T16:46:15.155Z,21.40
2019-01-27T16:48:47.923Z,21.40
2019-01-27T16:51:21.456Z,21.40
2019-01-27T16:53:54.224Z,21.40
2019-01-27T16:56:27.216Z,21.40
2019-01-27T16:59:00.020Z,21.40
2019-01-27T17:01:33.106Z,21.40
2019-01-27T17:04:05.962Z,21.40
2019-01-27T17:06:38.822Z,21.40
2019-01-27T17:09:12.371Z,21.30
2019-01-27T17:11:45.327Z,21.30
2019-01-27T17:14:18.007Z,21.30
2019-01-27T17:16:51.043Z,21.30
2019-01-27T17:19:23.960Z,21.30
2019-01-27T17:21:56.879Z,21.30
2019-01-27T17:24:29.869Z,21.30
2019-01-27T17:27:02.660Z,21.20
2019-01-27T17:29:35.624Z,21.10
2019-01-27T17:32:08.832Z,21.10
2019-01-27T17:34:41.506Z,21.10
2019-01-27T17:37:15.272Z,21.00
2019-01-27T17:39:48.077Z,21.00
2019-01-27T17:42:20.974Z,21.00
2019-01-27T17:44:53.942Z,21.00
2019-01-27T17:47:26.741Z,21.00
2019-01-27T17:50:01.004Z,20.90
2019-01-27T17:52:33.806Z,20.90
2019-01-27T17:55:08.243Z,20.90
2019-01-27T17:57:48.754Z,20.90
2019-01-27T18:00:25.671Z,20.90
2019-01-27T18:03:00.175Z,20.90
2019-01-27T18:05:34.204Z,21.00
2019-01-27T18:08:08.267Z,21.00
2019-01-27T18:10:45.183Z,21.00
2019-01-27T18:13:19.456Z,21.00
2019-01-27T18:15:52.204Z,21.00
2019-01-27T18:18:25.620Z,21.00
2019-01-27T18:20:58.378Z,21.10
2019-01-27T18:23:31.996Z,21.10
2019-01-27T18:26:04.887Z,21.10
2019-01-27T18:28:37.680Z,21.10
2019-01-27T18:31:10.866Z,21.10
2019-01-27T18:33:43.859Z,21.10
2019-01-27T18:36:16.846Z,21.10
2019-01-27T18:38:49.835Z,21.10
2019-01-27T18:41:23.411Z,21.20
2019-01-27T18:43:56.328Z,21.20
2019-01-27T18:46:29.386Z,21.20
2019-01-27T18:49:02.187Z,21.30
2019-01-27T18:51:35.291Z,21.30
2019-01-27T18:54:09.328Z,21.40
2019-01-27T18:56:43.422Z,21.40
2019-01-27T18:59:20.437Z,21.50
2019-01-27T19:02:03.106Z,21.50
2019-01-27T19:04:43.370Z,21.60
2019-01-27T19:07:26.923Z,21.60
2019-01-27T19:10:03.995Z,21.60
2019-01-27T19:12:41.479Z,21.60
2019-01-27T19:15:32.493Z,21.70
2019-01-27T19:18:06.618Z,21.70
2019-01-27T19:20:41.062Z,21.70
2019-01-27T19:23:14.937Z,21.70
2019-01-27T19:25:55.348Z,21.70
2019-01-27T19:28:32.601Z,21.70
2019-01-27T19:31:09.477Z,21.70
2019-01-27T19:33:52.809Z,21.70
2019-01-27T19:36:30.182Z,21.60
2019-01-27T19:39:04.420Z,21.60
2019-01-27T19:41:38.855Z,21.60
2019-01-27T19:44:20.124Z,21.60
2019-01-27T19:46:57.284Z,21.70
2019-01-27T19:49:40.480Z,21.70
2019-01-27T19:52:14.518Z,21.70
2019-01-27T19:55:03.687Z,21.70
2019-01-27T19:57:38.023Z,21.80
2019-01-27T20:00:16.323Z,21.80
2019-01-27T20:02:50.543Z,21.90
2019-01-27T20:05:30.792Z,21.90
2019-01-27T20:08:22.527Z,21.90
2019-01-27T20:11:15.409Z,21.90
2019-01-27T20:13:58.392Z,22.00
2019-01-27T20:16:38.845Z,22.00
2019-01-27T20:19:12.763Z,22.10
2019-01-27T20:21:53.674Z,22.10
2019-01-27T20:24:31.425Z,22.10
2019-01-27T20:27:22.024Z,22.10
2019-01-27T20:30:04.760Z,22.10
2019-01-27T20:32:44.858Z,22.20
2019-01-27T20:35:21.996Z,22.30
2019-01-27T20:37:59.159Z,22.40
2019-01-27T20:40:49.578Z,22.40
2019-01-27T20:43:30.033Z,22.40
2019-01-27T20:46:10.421Z,22.40
2019-01-27T20:48:44.833Z,22.40
2019-01-27T20:51:21.693Z,22.30
2019-01-27T20:53:58.773Z,22.30
2019-01-27T20:56:50.911Z,22.30
2019-01-27T20:59:28.489Z,22.30
2019-01-27T21:02:02.534Z,22.30
2019-01-27T21:24:41.974Z,22.20
2019-01-27T21:27:14.883Z,22.20
2019-01-27T21:29:47.694Z,22.20
2019-01-27T21:32:21.352Z,22.10
2019-01-27T21:34:54.489Z,22.00
2019-01-27T21:37:27.454Z,22.00
2019-01-27T21:40:00.269Z,22.00
2019-01-27T21:42:33.440Z,22.20
2019-01-27T21:45:07.122Z,22.30
2019-01-27T21:47:40.230Z,22.70
2019-01-27T21:50:17.775Z,23.00
2019-01-27T21:52:50.696Z,23.20
2019-01-27T21:55:23.499Z,23.40
2019-01-27T21:57:56.404Z,23.50
2019-01-27T22:00:29.398Z,23.70
2019-01-27T22:03:02.461Z,23.90
2019-01-27T22:05:35.650Z,24.40
2019-01-27T22:08:08.558Z,24.70
2019-01-27T22:10:42.571Z,24.90
2019-01-27T22:13:15.618Z,25.00
2019-01-27T22:15:48.415Z,25.00
2019-01-27T22:18:21.801Z,25.00
2019-01-27T22:20:54.591Z,25.00
2019-01-27T22:23:28.172Z,24.80
2019-01-27T22:26:01.383Z,24.70
2019-01-27T22:28:34.376Z,25.00
2019-01-27T22:31:07.149Z,25.50
2019-01-27T22:33:40.404Z,25.90
2019-01-27T22:36:14.461Z,26.10
2019-01-27T22:38:49.592Z,26.10
2019-01-27T22:41:29.493Z,25.90
2019-01-27T22:44:41.398Z,26.00
2019-01-27T22:47:15.328Z,25.80
2019-01-27T22:49:49.328Z,25.60
2019-01-27T22:52:23.228Z,25.40
2019-01-27T22:54:56.199Z,25.20
2019-01-27T22:57:29.181Z,25.20
2019-01-27T23:00:03.398Z,25.20
2019-01-27T23:02:36.388Z,25.30
2019-01-27T23:05:11.032Z,25.70
2019-01-27T23:07:43.943Z,25.60
2019-01-27T23:10:16.981Z,25.50
2019-01-27T23:12:49.776Z,25.50
2019-01-27T23:15:23.341Z,26.10
2019-01-27T23:17:56.031Z,26.40
2019-01-27T23:20:29.011Z,26.30
2019-01-27T23:23:01.924Z,26.40
2019-01-27T23:25:35.783Z,26.30
2019-01-27T23:28:09.607Z,26.20
2019-01-27T23:30:42.750Z,26.40
2019-01-27T23:33:15.510Z,27.00
2019-01-27T23:35:48.190Z,26.90
2019-01-27T23:38:21.271Z,27.00
2019-01-27T23:40:54.047Z,27.70
2019-01-27T23:43:27.031Z,28.20
2019-01-27T23:45:59.885Z,28.00
2019-01-27T23:48:33.557Z,28.20
2019-01-27T23:51:06.424Z,28.30
2019-01-27T23:53:39.976Z,28.20
2019-01-27T23:56:12.804Z,28.30
2019-01-27T23:58:45.777Z,29.00
